createdAt,value
2019-04-12T00:01:32.723Z,99.90
2019-04-12T00:04:01.553Z,99.90
2019-04-12T00:06:33.015Z,99.90
2019-04-12T00:09:02.964Z,99.90
2019-04-12T00:11:32.334Z,99.90
2019-04-12T00:14:01.693Z,99.90
2019-04-12T00:16:31.059Z,99.90
2019-04-12T00:19:00.415Z,99.90
2019-04-12T00:21:29.786Z,99.90
2019-04-12T00:23:59.135Z,99.90
2019-04-12T00:26:28.494Z,99.90
2019-04-12T00:28:57.867Z,99.90
2019-04-12T00:31:27.234Z,99.90
2019-04-12T00:33:56.589Z,99.90
2019-04-12T00:36:25.947Z,99.90
2019-04-12T00:38:58.156Z,99.90
2019-04-12T00:41:26.291Z,99.90
2019-04-12T00:43:55.651Z,99.90
2019-04-12T00:46:25.000Z,99.90
2019-04-12T00:48:54.367Z,99.90
2019-04-12T00:51:23.702Z,99.90
2019-04-12T00:53:53.083Z,99.90
2019-04-12T00:56:22.426Z,99.90
2019-04-12T00:58:51.784Z,99.90
2019-04-12T01:01:29.259Z,99.90
2019-04-12T01:04:02.198Z,99.90
2019-04-12T01:06:31.541Z,99.90
2019-04-12T01:09:01.006Z,99.90
2019-04-12T01:11:30.350Z,99.90
2019-04-12T01:13:59.715Z,99.90
2019-04-12T01:16:30.906Z,99.90
2019-04-12T01:19:02.137Z,99.90
2019-04-12T01:21:31.762Z,99.90
2019-04-12T01:24:01.131Z,99.90
2019-04-12T01:26:30.474Z,99.90
2019-04-12T01:28:59.854Z,99.90
2019-04-12T01:31:29.236Z,99.90
2019-04-12T01:33:58.597Z,99.90
2019-04-12T01:36:27.947Z,99.90
2019-04-12T01:38:57.363Z,99.90
2019-04-12T01:41:26.708Z,99.90
2019-04-12T01:43:56.125Z,99.90
2019-04-12T01:46:25.463Z,99.90
2019-04-12T01:48:54.830Z,99.90
2019-04-12T01:51:24.174Z,99.90
2019-04-12T01:53:53.543Z,99.90
2019-04-12T01:56:23.531Z,99.90
2019-04-12T01:58:52.857Z,99.90
2019-04-12T02:01:22.199Z,99.90
2019-04-12T02:03:51.557Z,99.90
2019-04-12T02:06:20.912Z,99.90
2019-04-12T02:08:50.279Z,99.90
2019-04-12T02:11:19.627Z,99.90
2019-04-12T02:13:48.988Z,99.90
2019-04-12T02:16:18.352Z,99.90
2019-04-12T02:18:47.716Z,99.90
2019-04-12T02:21:17.193Z,99.90
2019-04-12T02:23:46.531Z,99.90
2019-04-12T02:26:15.866Z,99.90
2019-04-12T02:28:54.352Z,99.90
2019-04-12T02:32:01.112Z,99.90
2019-04-12T02:34:31.072Z,99.90
2019-04-12T02:37:00.403Z,99.90
2019-04-12T02:39:29.776Z,99.90
2019-04-12T02:41:59.515Z,99.90
2019-04-12T02:44:29.585Z,99.90
2019-04-12T02:47:22.768Z,99.90
2019-04-12T02:50:16.669Z,99.90
2019-04-12T02:52:56.713Z,99.90
2019-04-12T02:55:38.395Z,99.90
2019-04-12T02:58:23.751Z,99.90
2019-04-12T03:00:56.665Z,99.90
2019-04-12T03:03:26.014Z,99.90
2019-04-12T03:05:56.486Z,99.90
2019-04-12T03:08:26.059Z,99.90
2019-04-12T03:10:57.220Z,99.90
2019-04-12T03:13:29.250Z,99.90
2019-04-12T03:15:59.708Z,99.90
2019-04-12T03:18:29.059Z,99.90
2019-04-12T03:20:59.072Z,99.90
2019-04-12T03:23:29.236Z,99.90
2019-04-12T03:25:59.122Z,99.90
2019-04-12T03:28:29.404Z,99.90
2019-04-12T03:30:58.862Z,99.90
2019-04-12T03:33:28.653Z,99.90
2019-04-12T03:35:58.122Z,99.90
2019-04-12T03:38:27.680Z,99.90
2019-04-12T03:40:57.191Z,99.90
2019-04-12T03:43:26.856Z,99.90
2019-04-12T03:45:56.264Z,99.90
2019-04-12T03:48:25.623Z,99.90
2019-04-12T03:50:55.086Z,99.90
2019-04-12T03:53:25.058Z,99.90
2019-04-12T03:56:07.192Z,99.90
2019-04-12T03:58:25.630Z,99.90
2019-04-12T04:00:55.011Z,99.90
2019-04-12T04:03:24.565Z,99.90
2019-04-12T04:05:54.347Z,99.90
2019-04-12T04:08:23.803Z,99.90
2019-04-12T04:10:53.511Z,99.90
2019-04-12T04:13:22.915Z,99.90
2019-04-12T04:15:53.163Z,99.90
2019-04-12T04:18:25.181Z,99.90
2019-04-12T04:21:04.524Z,99.90
2019-04-12T04:23:47.780Z,99.90
2019-04-12T04:26:36.261Z,99.90
2019-04-12T04:29:38.182Z,99.90
2019-04-12T04:32:21.895Z,99.90
2019-04-12T04:34:52.333Z,99.90
2019-04-12T04:37:22.924Z,99.90
2019-04-12T04:39:52.600Z,99.90
2019-04-12T04:42:21.999Z,99.90
2019-04-12T04:44:52.205Z,99.90
2019-04-12T04:47:21.515Z,99.90
2019-04-12T04:49:51.305Z,99.90
2019-04-12T04:52:20.798Z,99.90
2019-04-12T04:54:50.199Z,99.90
2019-04-12T04:57:19.878Z,99.90
2019-04-12T04:59:49.444Z,99.90
2019-04-12T05:02:18.823Z,99.90
2019-04-12T05:04:48.194Z,99.90
2019-04-12T05:07:17.776Z,99.90
2019-04-12T05:09:47.242Z,99.90
2019-04-12T05:12:17.335Z,99.90
2019-04-12T05:14:46.726Z,99.90
2019-04-12T05:17:16.091Z,99.90
2019-04-12T05:19:45.767Z,99.90
2019-04-12T05:22:15.143Z,99.90
2019-04-12T05:24:44.651Z,99.90
2019-04-12T05:27:14.214Z,99.90
2019-04-12T05:29:43.826Z,99.90
2019-04-12T05:32:13.191Z,99.90
2019-04-12T05:34:42.580Z,99.90
2019-04-12T05:37:12.038Z,99.90
2019-04-12T05:39:41.419Z,99.90
2019-04-12T05:42:10.779Z,99.90
2019-04-12T05:44:40.167Z,99.90
2019-04-12T05:47:34.518Z,99.90
2019-04-12T05:50:17.787Z,99.90
2019-04-12T05:52:47.151Z,99.90
2019-04-12T05:55:16.851Z,99.90
2019-04-12T05:57:47.867Z,99.90
2019-04-12T06:00:25.207Z,99.90
2019-04-12T06:02:57.901Z,99.90
2019-04-12T06:05:28.042Z,99.90
2019-04-12T06:07:56.707Z,99.90
2019-04-12T06:10:26.086Z,99.90
2019-04-12T06:12:55.798Z,99.90
2019-04-12T06:15:25.427Z,99.90
2019-04-12T06:17:54.867Z,99.90
2019-04-12T06:20:35.790Z,99.90
2019-04-12T06:23:05.147Z,99.90
2019-04-12T06:25:56.660Z,99.90
2019-04-12T06:28:26.039Z,99.90
2019-04-12T06:30:56.670Z,99.90
2019-04-12T06:33:26.030Z,99.90
2019-04-12T06:35:55.513Z,99.90
2019-04-12T06:38:24.855Z,99.90
2019-04-12T06:40:54.231Z,99.90
2019-04-12T06:43:23.586Z,99.90
2019-04-12T06:45:52.956Z,99.90
2019-04-12T06:48:22.306Z,99.90
2019-04-12T06:50:54.737Z,99.90
2019-04-12T06:53:24.090Z,99.90
2019-04-12T06:56:00.215Z,99.90
2019-04-12T06:58:29.586Z,99.90
2019-04-12T07:01:21.463Z,99.90
2019-04-12T07:03:56.993Z,99.90
2019-04-12T07:06:24.743Z,99.90
2019-04-12T07:08:54.091Z,99.90
2019-04-12T07:11:23.467Z,99.90
2019-04-12T07:13:52.822Z,99.90
2019-04-12T07:16:22.196Z,99.90
2019-04-12T07:18:51.566Z,99.90
2019-04-12T07:21:20.947Z,99.90
2019-04-12T07:23:50.297Z,99.90
2019-04-12T07:26:19.671Z,99.90
2019-04-12T07:28:49.047Z,99.90
2019-04-12T07:31:18.414Z,99.90
2019-04-12T07:33:47.870Z,99.90
2019-04-12T07:36:17.206Z,99.90
2019-04-12T07:38:46.555Z,99.90
2019-04-12T07:41:15.939Z,99.90
2019-04-12T07:43:45.293Z,99.90
2019-04-12T07:46:14.666Z,99.90
2019-04-12T07:48:44.024Z,99.90
2019-04-12T07:51:35.169Z,99.90
2019-04-12T07:54:23.495Z,99.90
2019-04-12T07:56:52.986Z,99.90
2019-04-12T07:59:26.883Z,99.90
2019-04-12T08:02:15.227Z,99.90
2019-04-12T08:05:12.781Z,99.90
2019-04-12T08:07:51.095Z,99.90
2019-04-12T08:10:20.464Z,99.90
2019-04-12T08:12:49.814Z,99.90
2019-04-12T08:15:19.167Z,99.90
2019-04-12T08:17:48.543Z,99.90
2019-04-12T08:20:17.907Z,99.90
2019-04-12T08:22:47.286Z,99.90
2019-04-12T08:25:16.648Z,99.90
2019-04-12T08:27:46.051Z,99.90
2019-04-12T08:30:15.518Z,99.90
2019-04-12T08:32:44.907Z,99.90
2019-04-12T08:35:14.267Z,99.90
2019-04-12T08:37:43.696Z,99.90
2019-04-12T08:40:13.046Z,99.10
2019-04-12T08:42:43.356Z,98.40
2019-04-12T08:45:12.826Z,99.90
2019-04-12T08:47:42.206Z,99.90
2019-04-12T08:50:11.680Z,98.90
2019-04-12T08:52:41.022Z,99.90
2019-04-12T08:55:10.482Z,99.90
2019-04-12T08:57:39.818Z,99.90
2019-04-12T09:00:10.078Z,99.90
2019-04-12T09:02:39.559Z,99.90
2019-04-12T09:05:09.145Z,99.90
2019-04-12T09:07:38.482Z,99.90
2019-04-12T09:10:08.066Z,99.60
2019-04-12T09:12:37.402Z,97.40
2019-04-12T09:15:07.056Z,97.50
2019-04-12T09:17:36.435Z,97.70
2019-04-12T09:20:27.688Z,96.50
2019-04-12T09:23:28.050Z,95.20
2019-04-12T09:26:04.131Z,95.60
2019-04-12T09:28:33.467Z,96.00
2019-04-12T09:31:02.962Z,95.50
2019-04-12T09:33:32.414Z,93.70
2019-04-12T09:36:01.767Z,95.00
2019-04-12T09:38:31.127Z,94.70
2019-04-12T09:41:00.513Z,93.60
2019-04-12T09:43:29.859Z,93.70
2019-04-12T09:45:59.240Z,92.70
2019-04-12T09:48:28.595Z,92.60
2019-04-12T09:50:57.978Z,91.50
2019-04-12T09:53:27.328Z,91.80
2019-04-12T09:55:56.711Z,91.60
2019-04-12T09:58:36.786Z,83.20
2019-04-12T10:00:57.099Z,90.00
2019-04-12T10:03:26.456Z,87.60
2019-04-12T10:05:55.842Z,90.00
2019-04-12T10:08:27.184Z,90.00
2019-04-12T10:10:56.238Z,88.70
2019-04-12T10:13:27.848Z,91.00
2019-04-12T10:15:57.232Z,88.00
2019-04-12T10:18:26.587Z,89.00
2019-04-12T10:20:55.954Z,85.00
2019-04-12T10:23:25.315Z,83.90
2019-04-12T10:25:54.733Z,85.70
2019-04-12T10:28:24.118Z,90.10
2019-04-12T10:30:53.491Z,86.10
2019-04-12T10:33:22.851Z,81.70
2019-04-12T10:35:52.231Z,87.70
2019-04-12T10:38:21.583Z,88.60
2019-04-12T10:40:50.890Z,88.60
2019-04-12T10:43:20.248Z,87.10
2019-04-12T10:46:08.603Z,85.40
2019-04-12T10:48:51.831Z,87.20
2019-04-12T10:51:39.063Z,85.70
2019-04-12T10:54:30.394Z,83.20
2019-04-12T10:56:59.778Z,78.80
2019-04-12T10:59:29.346Z,77.60
2019-04-12T11:01:58.727Z,77.50
2019-04-12T11:04:28.087Z,84.00
2019-04-12T11:06:57.467Z,82.10
2019-04-12T11:09:26.834Z,81.10
2019-04-12T11:11:56.218Z,80.80
2019-04-12T11:14:25.572Z,80.90
2019-04-12T11:16:54.991Z,84.20
2019-04-12T11:19:24.354Z,80.80
2019-04-12T11:21:53.755Z,84.00
2019-04-12T11:24:23.122Z,81.70
2019-04-12T11:26:52.498Z,81.30
2019-04-12T11:29:21.877Z,83.80
2019-04-12T11:31:51.263Z,78.80
2019-04-12T11:34:20.639Z,76.70
2019-04-12T11:36:50.011Z,79.70
2019-04-12T11:39:19.366Z,77.40
2019-04-12T11:41:48.776Z,76.20
2019-04-12T11:44:18.134Z,77.70
2019-04-12T11:46:47.495Z,75.50
2019-04-12T11:49:16.893Z,74.70
2019-04-12T11:51:46.267Z,79.10
2019-04-12T11:54:15.618Z,71.80
2019-04-12T11:56:45.090Z,76.60
2019-04-12T11:59:14.439Z,77.00
2019-04-12T12:01:50.071Z,78.10
2019-04-12T12:04:45.431Z,76.40
2019-04-12T12:07:52.155Z,73.10
2019-04-12T12:10:47.503Z,80.30
2019-04-12T12:13:26.058Z,78.30
2019-04-12T12:16:17.151Z,79.40
2019-04-12T12:18:49.534Z,76.10
2019-04-12T12:21:18.893Z,76.40
2019-04-12T12:23:48.275Z,81.00
2019-04-12T12:26:17.553Z,81.60
2019-04-12T12:28:46.954Z,78.10
2019-04-12T12:31:16.309Z,76.90
2019-04-12T12:33:45.687Z,77.40
2019-04-12T12:36:15.036Z,79.70
2019-04-12T12:38:44.477Z,78.80
2019-04-12T12:41:13.809Z,80.90
2019-04-12T12:43:43.223Z,78.90
2019-04-12T12:46:12.547Z,77.90
2019-04-12T12:48:41.953Z,82.40
2019-04-12T12:51:11.287Z,80.00
2019-04-12T12:53:40.711Z,78.40
2019-04-12T12:56:10.071Z,80.20
2019-04-12T12:58:39.448Z,81.80
2019-04-12T13:01:08.799Z,79.40
2019-04-12T13:03:38.249Z,81.60
2019-04-12T13:06:07.524Z,78.70
2019-04-12T13:08:36.904Z,80.80
2019-04-12T13:11:06.656Z,77.90
2019-04-12T13:13:36.034Z,77.50
2019-04-12T13:16:05.383Z,79.60
2019-04-12T13:18:34.760Z,77.30
2019-04-12T13:21:04.120Z,78.70
2019-04-12T13:23:33.497Z,79.10
2019-04-12T13:26:02.848Z,79.40
2019-04-12T13:28:32.280Z,77.20
2019-04-12T13:31:36.058Z,76.50
2019-04-12T13:34:30.341Z,76.30
2019-04-12T13:37:26.124Z,78.60
2019-04-12T13:40:09.883Z,77.50
2019-04-12T13:42:41.332Z,77.30
2019-04-12T13:45:12.167Z,76.20
2019-04-12T13:47:41.515Z,74.30
2019-04-12T13:50:11.795Z,77.50
2019-04-12T13:52:41.149Z,77.80
2019-04-12T13:55:10.822Z,79.50
2019-04-12T13:57:40.171Z,80.10
2019-04-12T14:00:19.065Z,79.30
2019-04-12T14:02:41.057Z,80.00
2019-04-12T14:05:10.843Z,85.50
2019-04-12T14:07:40.188Z,79.50
2019-04-12T14:10:10.266Z,79.00
2019-04-12T14:12:39.639Z,80.80
2019-04-12T14:15:09.218Z,82.60
2019-04-12T14:17:38.584Z,81.60
2019-04-12T14:20:09.392Z,79.60
2019-04-12T14:22:38.852Z,82.80
2019-04-12T14:25:08.331Z,82.10
2019-04-12T14:27:37.683Z,82.30
2019-04-12T14:30:09.862Z,82.50
2019-04-12T14:32:41.484Z,81.70
2019-04-12T14:35:29.825Z,83.30
2019-04-12T14:38:02.293Z,81.50
2019-04-12T14:40:42.343Z,82.10
2019-04-12T14:43:07.643Z,79.00
2019-04-12T14:46:14.228Z,81.00
2019-04-12T14:48:43.591Z,80.50
2019-04-12T14:51:12.996Z,79.80
2019-04-12T14:53:42.351Z,79.60
2019-04-12T14:56:11.735Z,82.30
2019-04-12T14:58:41.101Z,82.00
2019-04-12T15:01:10.612Z,83.30
2019-04-12T15:03:39.947Z,83.50
2019-04-12T15:06:09.339Z,82.00
2019-04-12T15:08:38.694Z,83.70
2019-04-12T15:11:08.007Z,83.70
2019-04-12T15:13:37.377Z,85.10
2019-04-12T15:16:06.760Z,83.20
2019-04-12T15:18:36.129Z,86.20
2019-04-12T15:21:05.488Z,86.80
2019-04-12T15:23:34.903Z,84.50
2019-04-12T15:26:04.239Z,85.20
2019-04-12T15:28:33.652Z,87.10
2019-04-12T15:31:03.008Z,83.30
2019-04-12T15:33:32.386Z,84.80
2019-04-12T15:36:01.759Z,85.30
2019-04-12T15:38:31.131Z,85.20
2019-04-12T15:41:00.499Z,86.80
2019-04-12T15:43:29.879Z,86.50
2019-04-12T15:45:59.240Z,88.40
2019-04-12T15:48:28.623Z,85.20
2019-04-12T15:50:57.983Z,85.20
2019-04-12T15:53:27.375Z,86.60
2019-04-12T15:55:56.731Z,86.20
2019-04-12T15:58:26.119Z,85.80
2019-04-12T16:01:11.761Z,86.70
2019-04-12T16:03:35.822Z,85.50
2019-04-12T16:06:07.887Z,87.30
2019-04-12T16:08:48.516Z,86.40
2019-04-12T16:11:20.340Z,88.80
2019-04-12T16:14:14.375Z,89.70
2019-04-12T16:17:22.246Z,90.30
2019-04-12T16:19:54.111Z,91.00
2019-04-12T16:22:23.507Z,90.10
2019-04-12T16:24:52.866Z,90.10
2019-04-12T16:27:22.255Z,90.90
2019-04-12T16:30:03.763Z,89.60
2019-04-12T16:33:01.471Z,88.40
2019-04-12T16:35:51.366Z,90.00
2019-04-12T16:38:24.075Z,89.00
2019-04-12T16:40:53.452Z,88.80
2019-04-12T16:43:22.840Z,89.00
2019-04-12T16:45:52.219Z,91.10
2019-04-12T16:48:21.592Z,90.00
2019-04-12T16:50:50.899Z,88.10
2019-04-12T16:53:20.176Z,87.80
2019-04-12T16:55:49.535Z,90.90
2019-04-12T16:58:18.959Z,84.90
2019-04-12T17:00:48.332Z,88.80
2019-04-12T17:03:17.732Z,90.50
2019-04-12T17:05:47.087Z,90.00
2019-04-12T17:08:16.444Z,88.40
2019-04-12T17:10:45.831Z,87.90
2019-04-12T17:13:15.193Z,87.50
2019-04-12T17:15:44.567Z,89.20
2019-04-12T17:18:13.922Z,89.20
2019-04-12T17:20:43.299Z,90.50
2019-04-12T17:23:12.654Z,90.70
2019-04-12T17:25:42.034Z,89.70
2019-04-12T17:28:11.402Z,90.00
2019-04-12T17:30:40.812Z,89.60
2019-04-12T17:33:10.199Z,91.20
2019-04-12T17:35:39.631Z,91.20
2019-04-12T17:38:08.988Z,91.60
2019-04-12T17:40:38.355Z,93.70
2019-04-12T17:43:07.714Z,93.90
2019-04-12T17:45:37.162Z,93.70
2019-04-12T17:48:08.327Z,93.40
2019-04-12T17:50:45.794Z,94.70
2019-04-12T17:53:33.118Z,94.60
2019-04-12T17:56:05.659Z,96.20
2019-04-12T17:58:35.012Z,97.70
2019-04-12T18:01:20.379Z,95.60
2019-04-12T18:03:50.180Z,95.90
2019-04-12T18:06:19.559Z,96.80
2019-04-12T18:08:48.919Z,95.70
2019-04-12T18:11:23.098Z,96.20
2019-04-12T18:13:52.451Z,97.10
2019-04-12T18:16:21.832Z,98.10
2019-04-12T18:18:51.197Z,99.00
2019-04-12T18:21:20.575Z,98.30
2019-04-12T18:23:49.944Z,98.70
2019-04-12T18:26:19.325Z,99.90
2019-04-12T18:28:48.710Z,99.90
2019-04-12T18:31:18.096Z,99.90
2019-04-12T18:33:47.447Z,99.30
2019-04-12T18:36:16.835Z,99.90
2019-04-12T18:38:46.195Z,99.90
2019-04-12T18:41:15.567Z,99.90
2019-04-12T18:43:44.943Z,99.90
2019-04-12T18:46:14.335Z,99.90
2019-04-12T18:48:43.705Z,99.90
2019-04-12T18:51:13.087Z,99.90
2019-04-12T18:53:42.465Z,99.90
2019-04-12T18:56:11.876Z,99.90
2019-04-12T18:58:41.206Z,99.90
2019-04-12T19:01:10.597Z,99.90
2019-04-12T19:03:40.027Z,99.90
2019-04-12T19:06:14.763Z,99.90
2019-04-12T19:08:40.431Z,99.90
2019-04-12T19:11:09.825Z,99.90
2019-04-12T19:13:39.188Z,99.90
2019-04-12T19:16:08.579Z,99.90
2019-04-12T19:18:37.986Z,99.90
2019-04-12T19:21:07.364Z,99.90
2019-04-12T19:23:36.731Z,99.90
2019-04-12T19:26:06.423Z,99.90
2019-04-12T19:28:35.807Z,99.90
2019-04-12T19:31:05.910Z,99.90
2019-04-12T19:33:42.819Z,99.90
2019-04-12T19:36:30.058Z,99.90
2019-04-12T19:39:17.196Z,99.90
2019-04-12T19:41:47.115Z,99.90
2019-04-12T19:44:16.479Z,99.90
2019-04-12T19:46:45.884Z,99.90
2019-04-12T19:49:15.250Z,99.90
2019-04-12T19:51:44.651Z,99.90
2019-04-12T19:54:14.019Z,99.90
2019-04-12T19:56:43.383Z,99.90
2019-04-12T19:59:12.767Z,99.90
2019-04-12T20:01:42.127Z,99.90
2019-04-12T20:04:11.518Z,99.90
2019-04-12T20:06:40.891Z,99.90
2019-04-12T20:09:10.384Z,99.90
2019-04-12T20:11:39.747Z,99.90
2019-04-12T20:14:09.129Z,99.90
2019-04-12T20:16:38.499Z,99.90
2019-04-12T20:19:07.887Z,99.90
2019-04-12T20:21:37.247Z,99.90
2019-04-12T20:24:06.639Z,99.90
2019-04-12T20:26:36.006Z,99.90
2019-04-12T20:29:05.518Z,99.90
2019-04-12T20:31:34.880Z,99.90
2019-04-12T20:34:04.267Z,99.90
2019-04-12T20:36:33.631Z,99.90
2019-04-12T20:39:03.022Z,99.90
2019-04-12T20:41:32.379Z,99.90
2019-04-12T20:44:01.768Z,99.90
2019-04-12T20:46:31.131Z,99.90
2019-04-12T20:49:00.514Z,99.90
2019-04-12T20:51:29.875Z,99.90
2019-04-12T20:53:59.279Z,99.90
2019-04-12T20:56:28.647Z,99.90
2019-04-12T20:58:58.035Z,99.90
2019-04-12T21:01:27.400Z,99.90
2019-04-12T21:03:56.791Z,99.90
2019-04-12T21:06:26.151Z,99.90
2019-04-12T21:08:55.544Z,99.90
2019-04-12T21:11:24.936Z,99.90
2019-04-12T21:13:54.316Z,99.90
2019-04-12T21:16:23.722Z,99.90
2019-04-12T21:18:53.080Z,99.90
2019-04-12T21:21:22.442Z,99.90
2019-04-12T21:23:51.995Z,99.90
2019-04-12T21:26:21.462Z,99.90
2019-04-12T21:28:50.914Z,99.90
2019-04-12T21:31:20.278Z,99.90
2019-04-12T21:33:49.597Z,99.90
2019-04-12T21:36:18.958Z,99.90
2019-04-12T21:38:48.346Z,99.90
2019-04-12T21:41:17.711Z,99.90
2019-04-12T21:43:48.219Z,99.90
2019-04-12T21:46:20.070Z,99.90
2019-04-12T21:48:48.765Z,99.90
2019-04-12T21:51:18.136Z,99.90
2019-04-12T21:53:50.253Z,99.90
2019-04-12T21:56:18.535Z,99.90
2019-04-12T21:58:47.936Z,99.90
2019-04-12T22:01:19.199Z,99.90
2019-04-12T22:03:49.015Z,99.90
2019-04-12T22:06:18.387Z,99.90
2019-04-12T22:08:47.771Z,99.90
2019-04-12T22:11:17.143Z,99.90
2019-04-12T22:13:46.531Z,99.90
2019-04-12T22:16:15.898Z,99.90
2019-04-12T22:18:45.295Z,99.90
2019-04-12T22:21:14.663Z,99.90
2019-04-12T22:23:44.057Z,99.90
2019-04-12T22:26:13.423Z,99.90
2019-04-12T22:28:42.885Z,99.90
2019-04-12T22:31:12.195Z,99.90
2019-04-12T22:33:52.699Z,99.90
2019-04-12T22:36:12.586Z,99.90
2019-04-12T22:38:41.947Z,99.90
2019-04-12T22:41:11.331Z,99.90
2019-04-12T22:43:40.708Z,99.90
2019-04-12T22:46:10.087Z,99.90
2019-04-12T22:48:39.451Z,99.90
2019-04-12T22:51:08.849Z,99.90
2019-04-12T22:53:38.270Z,99.90
2019-04-12T22:56:07.663Z,99.90
2019-04-12T22:58:37.026Z,99.90
2019-04-12T23:01:06.416Z,99.90
2019-04-12T23:03:35.780Z,99.90
2019-04-12T23:06:05.171Z,99.90
2019-04-12T23:08:34.534Z,99.90
2019-04-12T23:11:04.191Z,99.90
2019-04-12T23:13:33.550Z,99.90
2019-04-12T23:16:02.866Z,99.90
2019-04-12T23:18:32.247Z,99.90
2019-04-12T23:21:01.635Z,99.90
2019-04-12T23:23:30.999Z,99.90
2019-04-12T23:26:00.383Z,99.90
2019-04-12T23:28:29.746Z,99.90
2019-04-12T23:31:17.018Z,99.90
2019-04-12T23:34:16.939Z,99.90
2019-04-12T23:36:39.199Z,99.90
2019-04-12T23:39:08.600Z,99.90
2019-04-12T23:41:37.955Z,99.90
2019-04-12T23:44:07.322Z,99.90
2019-04-12T23:46:36.779Z,99.90
2019-04-12T23:49:06.139Z,99.90
2019-04-12T23:51:35.520Z,99.90
2019-04-12T23:54:04.887Z,99.90
2019-04-12T23:56:34.330Z,99.90
2019-04-12T23:59:03.748Z,99.90
